PWSweather.com
Personal Weather Stations
Station Observations
IBRABANT12
Leuven, BlandenBE 3052

LeuvenBlandenBE 3052

Lat: 50.8252218, Lon: 4.709682799999996

Elevation: 193

Station Type: Davis Vantage Vue

http://www.weerstationblanden.be

Latest ConditionsUpdated 5:10:11 PM GMT+01:01 Thursday, Mar 23, 2017
Currently Today's Max Today's Min Today's Average
Temperature 59.2°F15.1°C 59.7°F15.4°C 37.9°F3.3°C 46.4°F8.0°C
Dew Point 42.6°F5.9°C 43.8°F6.6°C 35.4°F1.9°C 39.3°F4.1°C
Winds 8.8 mph ESE14.2 kmh ESE 11.4 mph E18.3 kmh E - 5.2 mph 8.4 kmh
Wind Gusts 13.0 mph20.9 kmh 17.0 mph27.4 kmh - -
Humidity 54% 91% 53% 78%
Pressure 29.90 in1012.5 mb 29.91 in1012.9 mb 29.84 in1010.5 mb -
Hour Temp Dew Point Humidity Winds Wind Gusts Pressure Precip Precip Rate Daily Precip Total
05:10 PM 59.2°F15.1°C 42.6°F5.9°C 54% 8.8 mph ESE14.2 kmh ESE 13.0 mph20.9 kmh 29.90 in1012.5 mb - 0.00 in0.0 mm 0.00 in0.0 mm
05:00 PM 59.4°F15.2°C 42.3°F5.7°C 53% 9.4 mph E15.1 kmh E 13.0 mph20.9 kmh 29.91 in1012.9 mb - 0.00 in0.0 mm 0.00 in0.0 mm
04:50 PM 59.5°F15.3°C 42.3°F5.7°C 53% 11.3 mph ENE18.2 kmh ENE 17.0 mph27.4 kmh 29.91 in1012.9 mb - 0.00 in0.0 mm 0.00 in0.0 mm
04:40 PM 59.7°F15.4°C 43.0°F6.1°C 54% 9.0 mph ENE14.5 kmh ENE 15.0 mph24.1 kmh 29.91 in1012.9 mb - 0.00 in0.0 mm 0.00 in0.0 mm
04:30 PM 59.1°F15.1°C 42.9°F6.1°C 55% 5.1 mph E8.2 kmh E 6.0 mph9.7 kmh 29.91 in1012.9 mb - 0.00 in0.0 mm 0.00 in0.0 mm
04:20 PM 59.1°F15.1°C 42.5°F5.8°C 54% 10.5 mph ENE16.9 kmh ENE 12.0 mph19.3 kmh 29.90 in1012.5 mb - 0.00 in0.0 mm 0.00 in0.0 mm
04:00 PM 59.0°F15.0°C 42.4°F5.8°C 54% 9.5 mph E15.3 kmh E 13.0 mph20.9 kmh 29.90 in1012.5 mb - 0.00 in0.0 mm 0.00 in0.0 mm
03:50 PM 59.0°F15.0°C 42.8°F6.0°C 55% 6.4 mph E10.3 kmh E 7.0 mph11.3 kmh 29.90 in1012.5 mb - 0.00 in0.0 mm 0.00 in0.0 mm
03:40 PM 58.6°F14.8°C 42.5°F5.8°C 55% 9.1 mph E14.6 kmh E 15.0 mph24.1 kmh 29.90 in1012.5 mb - 0.00 in0.0 mm 0.00 in0.0 mm
03:30 PM 58.6°F14.8°C 42.0°F5.6°C 54% 7.1 mph ENE11.4 kmh ENE 10.0 mph16.1 kmh 29.90 in1012.5 mb - 0.00 in0.0 mm 0.00 in0.0 mm
03:20 PM 58.2°F14.6°C 42.1°F5.6°C 55% 9.4 mph E15.1 kmh E 12.0 mph19.3 kmh 29.90 in1012.5 mb - 0.00 in0.0 mm 0.00 in0.0 mm
03:10 PM 58.1°F14.5°C 42.5°F5.8°C 56% 8.5 mph E13.7 kmh E 14.0 mph22.5 kmh 29.90 in1012.5 mb - 0.00 in0.0 mm 0.00 in0.0 mm
03:00 PM 58.0°F14.4°C 42.4°F5.8°C 56% 9.5 mph SE15.3 kmh SE 13.0 mph20.9 kmh 29.90 in1012.5 mb - 0.00 in0.0 mm 0.00 in0.0 mm
02:50 PM 57.5°F14.2°C 42.8°F6.0°C 58% 10.7 mph E17.2 kmh E 12.0 mph19.3 kmh 29.89 in1012.2 mb - 0.00 in0.0 mm 0.00 in0.0 mm
02:40 PM 57.2°F14.0°C 42.1°F5.6°C 57% 8.3 mph E13.4 kmh E 11.0 mph17.7 kmh 29.89 in1012.2 mb - 0.00 in0.0 mm 0.00 in0.0 mm
02:30 PM 56.9°F13.8°C 42.7°F5.9°C 59% 8.3 mph E13.4 kmh E 10.0 mph16.1 kmh 29.90 in1012.5 mb - 0.00 in0.0 mm 0.00 in0.0 mm
02:20 PM 56.7°F13.7°C 42.5°F5.8°C 59% 7.2 mph E11.6 kmh E 10.0 mph16.1 kmh 29.89 in1012.2 mb - 0.00 in0.0 mm 0.00 in0.0 mm
02:10 PM 56.6°F13.7°C 42.9°F6.1°C 60% 6.7 mph NE10.8 kmh NE 9.0 mph14.5 kmh 29.89 in1012.2 mb - 0.00 in0.0 mm 0.00 in0.0 mm
02:00 PM 55.9°F13.3°C 42.2°F5.7°C 60% 10.2 mph E16.4 kmh E 16.0 mph25.7 kmh 29.89 in1012.2 mb - 0.00 in0.0 mm 0.00 in0.0 mm
01:50 PM 55.9°F13.3°C 43.1°F6.2°C 62% 8.6 mph E13.8 kmh E 14.0 mph22.5 kmh 29.90 in1012.5 mb - 0.00 in0.0 mm 0.00 in0.0 mm
01:40 PM 55.6°F13.1°C 42.8°F6.0°C 62% 9.5 mph ESE15.3 kmh ESE 13.0 mph20.9 kmh 29.90 in1012.5 mb - 0.00 in0.0 mm 0.00 in0.0 mm
01:30 PM 55.3°F12.9°C 43.3°F6.3°C 64% 5.6 mph ENE9.0 kmh ENE 11.0 mph17.7 kmh 29.91 in1012.9 mb - 0.00 in0.0 mm 0.00 in0.0 mm
01:20 PM 54.8°F12.7°C 42.9°F6.1°C 64% 7.4 mph E11.9 kmh E 11.0 mph17.7 kmh 29.90 in1012.5 mb - 0.00 in0.0 mm 0.00 in0.0 mm
01:10 PM 54.8°F12.7°C 42.9°F6.1°C 64% 11.3 mph E18.2 kmh E 14.0 mph22.5 kmh 29.90 in1012.5 mb - 0.00 in0.0 mm 0.00 in0.0 mm
01:00 PM 54.9°F12.7°C 43.4°F6.3°C 65% 9.5 mph NE15.3 kmh NE 12.0 mph19.3 kmh 29.90 in1012.5 mb - 0.00 in0.0 mm 0.00 in0.0 mm
12:50 PM 54.8°F12.7°C 43.2°F6.2°C 65% 7.7 mph E12.4 kmh E 13.0 mph20.9 kmh 29.90 in1012.5 mb - 0.00 in0.0 mm 0.00 in0.0 mm
12:40 PM 54.8°F12.7°C 42.8°F6.0°C 64% 11.4 mph E18.3 kmh E 15.0 mph24.1 kmh 29.90 in1012.5 mb - 0.00 in0.0 mm 0.00 in0.0 mm
12:30 PM 54.1°F12.3°C 43.8°F6.6°C 68% 8.7 mph ENE14.0 kmh ENE 11.0 mph17.7 kmh 29.90 in1012.5 mb - 0.00 in0.0 mm 0.00 in0.0 mm
12:20 PM 53.5°F11.9°C 43.2°F6.2°C 68% 7.9 mph ESE12.7 kmh ESE 10.0 mph16.1 kmh 29.89 in1012.2 mb - 0.00 in0.0 mm 0.00 in0.0 mm
12:10 PM 53.1°F11.7°C 43.2°F6.2°C 69% 11.4 mph E18.3 kmh E 12.0 mph19.3 kmh 29.89 in1012.2 mb - 0.00 in0.0 mm 0.00 in0.0 mm
12:00 PM 53.0°F11.7°C 43.8°F6.6°C 71% 5.8 mph E9.3 kmh E 6.0 mph9.7 kmh 29.90 in1012.5 mb - 0.00 in0.0 mm 0.00 in0.0 mm
11:50 AM 52.7°F11.5°C 43.2°F6.2°C 70% 6.6 mph E10.6 kmh E 9.0 mph14.5 kmh 29.90 in1012.5 mb - 0.00 in0.0 mm 0.00 in0.0 mm
11:40 AM 52.0°F11.1°C 42.9°F6.1°C 71% 9.5 mph E15.3 kmh E 14.0 mph22.5 kmh 29.90 in1012.5 mb - 0.00 in0.0 mm 0.00 in0.0 mm
11:30 AM 51.6°F10.9°C 42.9°F6.1°C 72% 8.9 mph E14.3 kmh E 12.0 mph19.3 kmh 29.89 in1012.2 mb - 0.00 in0.0 mm 0.00 in0.0 mm
11:20 AM 51.1°F10.6°C 42.8°F6.0°C 73% 5.5 mph ENE8.9 kmh ENE 6.0 mph9.7 kmh 29.89 in1012.2 mb - 0.00 in0.0 mm 0.00 in0.0 mm
11:10 AM 50.7°F10.4°C 42.4°F5.8°C 73% 5.9 mph SE9.5 kmh SE 12.0 mph19.3 kmh 29.89 in1012.2 mb - 0.00 in0.0 mm 0.00 in0.0 mm
11:00 AM 50.0°F10.0°C 42.4°F5.8°C 75% 7.2 mph SE11.6 kmh SE 10.0 mph16.1 kmh 29.89 in1012.2 mb - 0.00 in0.0 mm 0.00 in0.0 mm
10:50 AM 49.5°F9.7°C 41.9°F5.5°C 75% 7.1 mph ENE11.4 kmh ENE 7.0 mph11.3 kmh 29.89 in1012.2 mb - 0.00 in0.0 mm 0.00 in0.0 mm
10:40 AM 48.9°F9.4°C 41.7°F5.4°C 76% 6.9 mph ESE11.1 kmh ESE 11.0 mph17.7 kmh 29.90 in1012.5 mb - 0.00 in0.0 mm 0.00 in0.0 mm
10:30 AM 48.2°F9.0°C 41.3°F5.2°C 77% 8.3 mph E13.4 kmh E 12.0 mph19.3 kmh 29.89 in1012.2 mb - 0.00 in0.0 mm 0.00 in0.0 mm
10:20 AM 48.1°F8.9°C 41.6°F5.3°C 78% 8.6 mph E13.8 kmh E 11.0 mph17.7 kmh 29.90 in1012.5 mb - 0.00 in0.0 mm 0.00 in0.0 mm
10:10 AM 47.1°F8.4°C 40.9°F4.9°C 79% 6.9 mph E11.1 kmh E 9.0 mph14.5 kmh 29.90 in1012.5 mb - 0.00 in0.0 mm 0.00 in0.0 mm
10:00 AM 46.5°F8.1°C 41.0°F5.0°C 81% 9.1 mph E14.6 kmh E 13.0 mph20.9 kmh 29.90 in1012.5 mb - 0.00 in0.0 mm 0.00 in0.0 mm
09:50 AM 45.9°F7.7°C 40.7°F4.8°C 82% 8.6 mph E13.8 kmh E 10.0 mph16.1 kmh 29.90 in1012.5 mb - 0.00 in0.0 mm 0.00 in0.0 mm
09:40 AM 45.2°F7.3°C 40.3°F4.6°C 83% 7.0 mph ENE11.3 kmh ENE 9.0 mph14.5 kmh 29.90 in1012.5 mb - 0.00 in0.0 mm 0.00 in0.0 mm
09:30 AM 44.5°F6.9°C 40.0°F4.4°C 84% 8.3 mph E13.4 kmh E 12.0 mph19.3 kmh 29.90 in1012.5 mb - 0.00 in0.0 mm 0.00 in0.0 mm
09:20 AM 44.0°F6.7°C 39.8°F4.3°C 85% 8.6 mph E13.8 kmh E 12.0 mph19.3 kmh 29.90 in1012.5 mb - 0.00 in0.0 mm 0.00 in0.0 mm
09:10 AM 43.7°F6.5°C 40.0°F4.4°C 87% 5.2 mph NE8.4 kmh NE 9.0 mph14.5 kmh 29.90 in1012.5 mb - 0.00 in0.0 mm 0.00 in0.0 mm
09:00 AM 42.9°F6.1°C 39.0°F3.9°C 86% 5.4 mph E8.7 kmh E 5.0 mph8.0 kmh 29.89 in1012.2 mb - 0.00 in0.0 mm 0.00 in0.0 mm
08:50 AM 42.8°F6.0°C 39.2°F4.0°C 87% 5.1 mph ENE8.2 kmh ENE 7.0 mph11.3 kmh 29.89 in1012.2 mb - 0.00 in0.0 mm 0.00 in0.0 mm
08:40 AM 42.2°F5.7°C 38.9°F3.8°C 88% 3.9 mph E6.3 kmh E 4.0 mph6.4 kmh 29.89 in1012.2 mb - 0.00 in0.0 mm 0.00 in0.0 mm
08:30 AM 41.3°F5.2°C 38.3°F3.5°C 89% 4.5 mph E7.2 kmh E 7.0 mph11.3 kmh 29.89 in1012.2 mb - 0.00 in0.0 mm 0.00 in0.0 mm
08:20 AM 40.7°F4.8°C 38.0°F3.3°C 90% 4.3 mph E6.9 kmh E 6.0 mph9.7 kmh 29.89 in1012.2 mb - 0.00 in0.0 mm 0.00 in0.0 mm
08:10 AM 40.2°F4.6°C 37.5°F3.1°C 90% 4.5 mph E7.2 kmh E 9.0 mph14.5 kmh 29.89 in1012.2 mb - 0.00 in0.0 mm 0.00 in0.0 mm
08:00 AM 39.7°F4.3°C 37.0°F2.8°C 90% 3.5 mph SE5.6 kmh SE 7.0 mph11.3 kmh 29.89 in1012.2 mb - 0.00 in0.0 mm 0.00 in0.0 mm
07:50 AM 39.3°F4.1°C 36.6°F2.6°C 90% 2.5 mph ESE4.0 kmh ESE 4.0 mph6.4 kmh 29.88 in1011.9 mb - 0.00 in0.0 mm 0.00 in0.0 mm
07:40 AM 39.0°F3.9°C 36.6°F2.6°C 91% 2.9 mph E4.7 kmh E 5.0 mph8.0 kmh 29.88 in1011.9 mb - 0.00 in0.0 mm 0.00 in0.0 mm
07:30 AM 38.7°F3.7°C 36.3°F2.4°C 91% 6.0 mph E9.7 kmh E 7.0 mph11.3 kmh 29.87 in1011.5 mb - 0.00 in0.0 mm 0.00 in0.0 mm
07:20 AM 38.5°F3.6°C 36.1°F2.3°C 91% 6.2 mph ENE10.0 kmh ENE 10.0 mph16.1 kmh 29.87 in1011.5 mb - 0.00 in0.0 mm 0.00 in0.0 mm
07:10 AM 38.3°F3.5°C 35.9°F2.2°C 91% 4.8 mph E7.7 kmh E 7.0 mph11.3 kmh 29.87 in1011.5 mb - 0.00 in0.0 mm 0.00 in0.0 mm
07:00 AM 38.1°F3.4°C 35.8°F2.1°C 91% 4.6 mph E7.4 kmh E 6.0 mph9.7 kmh 29.87 in1011.5 mb - 0.00 in0.0 mm 0.00 in0.0 mm
06:50 AM 38.1°F3.4°C 35.7°F2.1°C 91% 4.2 mph ESE6.8 kmh ESE 6.0 mph9.7 kmh 29.87 in1011.5 mb - 0.00 in0.0 mm 0.00 in0.0 mm
06:40 AM 38.1°F3.4°C 35.7°F2.1°C 91% 3.3 mph E5.3 kmh E 5.0 mph8.0 kmh 29.87 in1011.5 mb - 0.00 in0.0 mm 0.00 in0.0 mm
06:30 AM 37.9°F3.3°C 35.5°F1.9°C 91% 2.7 mph E4.3 kmh E 4.0 mph6.4 kmh 29.87 in1011.5 mb - 0.00 in0.0 mm 0.00 in0.0 mm
06:20 AM 38.1°F3.4°C 35.7°F2.1°C 91% 0.5 mph ESE0.8 kmh ESE 2.0 mph3.2 kmh 29.87 in1011.5 mb - 0.00 in0.0 mm 0.00 in0.0 mm
06:10 AM 38.3°F3.5°C 35.9°F2.2°C 91% 2.2 mph E3.5 kmh E 3.0 mph4.8 kmh 29.86 in1011.2 mb - 0.00 in0.0 mm 0.00 in0.0 mm
06:00 AM 38.3°F3.5°C 35.9°F2.2°C 91% 3.5 mph ESE5.6 kmh ESE 5.0 mph8.0 kmh 29.86 in1011.2 mb - 0.00 in0.0 mm 0.00 in0.0 mm
05:50 AM 38.5°F3.6°C 35.8°F2.1°C 90% 1.5 mph ESE2.4 kmh ESE 3.0 mph4.8 kmh 29.86 in1011.2 mb - 0.00 in0.0 mm 0.00 in0.0 mm
05:40 AM 38.6°F3.7°C 35.9°F2.2°C 90% 1.6 mph ESE2.6 kmh ESE 3.0 mph4.8 kmh 29.86 in1011.2 mb - 0.00 in0.0 mm 0.00 in0.0 mm
05:30 AM 38.6°F3.7°C 35.9°F2.2°C 90% 3.5 mph E5.6 kmh E 6.0 mph9.7 kmh 29.85 in1010.8 mb - 0.00 in0.0 mm 0.00 in0.0 mm
05:20 AM 38.5°F3.6°C 36.1°F2.3°C 91% 3.9 mph ESE6.3 kmh ESE 6.0 mph9.7 kmh 29.85 in1010.8 mb - 0.00 in0.0 mm 0.00 in0.0 mm
05:10 AM 38.6°F3.7°C 35.9°F2.2°C 90% 3.3 mph ESE5.3 kmh ESE 5.0 mph8.0 kmh 29.85 in1010.8 mb - 0.00 in0.0 mm 0.00 in0.0 mm
05:00 AM 38.7°F3.7°C 36.3°F2.4°C 91% 4.8 mph E7.7 kmh E 5.0 mph8.0 kmh 29.85 in1010.8 mb - 0.00 in0.0 mm 0.00 in0.0 mm
04:50 AM 38.4°F3.6°C 36.0°F2.2°C 91% 2.9 mph E4.7 kmh E 4.0 mph6.4 kmh 29.85 in1010.8 mb - 0.00 in0.0 mm 0.00 in0.0 mm
04:40 AM 38.3°F3.5°C 35.9°F2.2°C 91% 1.9 mph ESE3.1 kmh ESE 3.0 mph4.8 kmh 29.85 in1010.8 mb - 0.00 in0.0 mm 0.00 in0.0 mm
04:30 AM 38.4°F3.6°C 35.7°F2.1°C 90% 1.5 mph ESE2.4 kmh ESE 2.0 mph3.2 kmh 29.85 in1010.8 mb - 0.00 in0.0 mm 0.00 in0.0 mm
04:20 AM 38.7°F3.7°C 36.0°F2.2°C 90% 2.2 mph E3.5 kmh E 3.0 mph4.8 kmh 29.85 in1010.8 mb - 0.00 in0.0 mm 0.00 in0.0 mm
04:10 AM 38.5°F3.6°C 36.1°F2.3°C 91% 2.1 mph E3.4 kmh E 3.0 mph4.8 kmh 29.86 in1011.2 mb - 0.00 in0.0 mm 0.00 in0.0 mm
04:00 AM 38.2°F3.4°C 35.8°F2.1°C 91% 2.4 mph E3.9 kmh E 3.0 mph4.8 kmh 29.85 in1010.8 mb - 0.00 in0.0 mm 0.00 in0.0 mm
03:50 AM 38.1°F3.4°C 35.4°F1.9°C 90% 0.3 mph ESE0.5 kmh ESE 1.0 mph1.6 kmh 29.86 in1011.2 mb - 0.00 in0.0 mm 0.00 in0.0 mm
03:40 AM 38.4°F3.6°C 35.7°F2.1°C 90% 0.1 mph SE0.2 kmh SE 1.0 mph1.6 kmh 29.85 in1010.8 mb - 0.00 in0.0 mm 0.00 in0.0 mm
03:30 AM 38.7°F3.7°C 35.7°F2.1°C 89% 0.4 mph SE0.6 kmh SE 1.0 mph1.6 kmh 29.85 in1010.8 mb - 0.00 in0.0 mm 0.00 in0.0 mm
03:20 AM 39.0°F3.9°C 36.0°F2.2°C 89% 0.7 mph ESE1.1 kmh ESE 2.0 mph3.2 kmh 29.86 in1011.2 mb - 0.00 in0.0 mm 0.00 in0.0 mm
03:10 AM 39.4°F4.1°C 36.1°F2.3°C 88% 0.2 mph E0.3 kmh E 1.0 mph1.6 kmh 29.86 in1011.2 mb - 0.00 in0.0 mm 0.00 in0.0 mm
03:00 AM 39.7°F4.3°C 36.4°F2.4°C 88% 0.1 mph E0.2 kmh E 1.0 mph1.6 kmh 29.86 in1011.2 mb - 0.00 in0.0 mm 0.00 in0.0 mm
02:50 AM 39.9°F4.4°C 36.6°F2.6°C 88% 1.7 mph E2.7 kmh E 3.0 mph4.8 kmh 29.86 in1011.2 mb - 0.00 in0.0 mm 0.00 in0.0 mm
02:40 AM 40.2°F4.6°C 36.6°F2.6°C 87% 2.0 mph E3.2 kmh E 4.0 mph6.4 kmh 29.86 in1011.2 mb - 0.00 in0.0 mm 0.00 in0.0 mm
02:30 AM 40.4°F4.7°C 36.8°F2.7°C 87% 1.3 mph E2.1 kmh E 2.0 mph3.2 kmh 29.87 in1011.5 mb - 0.00 in0.0 mm 0.00 in0.0 mm
02:20 AM 40.6°F4.8°C 37.0°F2.8°C 87% 0.8 mph SE1.3 kmh SE 1.0 mph1.6 kmh 29.87 in1011.5 mb - 0.00 in0.0 mm 0.00 in0.0 mm
02:10 AM 40.6°F4.8°C 37.0°F2.8°C 87% 1.3 mph SE2.1 kmh SE 2.0 mph3.2 kmh 29.86 in1011.2 mb - 0.00 in0.0 mm 0.00 in0.0 mm
02:00 AM 40.6°F4.8°C 36.7°F2.6°C 86% 0.9 mph SE1.4 kmh SE 2.0 mph3.2 kmh 29.86 in1011.2 mb - 0.00 in0.0 mm 0.00 in0.0 mm
01:50 AM 40.8°F4.9°C 36.9°F2.7°C 86% 0.2 mph ESE0.3 kmh ESE 1.0 mph1.6 kmh 29.86 in1011.2 mb - 0.00 in0.0 mm 0.00 in0.0 mm
01:40 AM 41.1°F5.1°C 36.9°F2.7°C 85% 0.7 mph SE1.1 kmh SE 1.0 mph1.6 kmh 29.86 in1011.2 mb - 0.00 in0.0 mm 0.00 in0.0 mm
01:30 AM 41.5°F5.3°C 37.0°F2.8°C 84% 1.5 mph ESE2.4 kmh ESE 3.0 mph4.8 kmh 29.86 in1011.2 mb - 0.00 in0.0 mm 0.00 in0.0 mm
01:20 AM 41.8°F5.4°C 37.3°F2.9°C 84% 2.3 mph E3.7 kmh E 3.0 mph4.8 kmh 29.85 in1010.8 mb - 0.00 in0.0 mm 0.00 in0.0 mm
01:10 AM 42.2°F5.7°C 37.4°F3.0°C 83% 1.6 mph E2.6 kmh E 4.0 mph6.4 kmh 29.85 in1010.8 mb - 0.00 in0.0 mm 0.00 in0.0 mm
01:00 AM 42.5°F5.8°C 37.7°F3.2°C 83% 3.6 mph E5.8 kmh E 4.0 mph6.4 kmh 29.84 in1010.5 mb - 0.00 in0.0 mm 0.00 in0.0 mm
12:50 AM 42.9°F6.1°C 37.8°F3.2°C 82% 4.4 mph E7.1 kmh E 6.0 mph9.7 kmh 29.85 in1010.8 mb - 0.00 in0.0 mm 0.00 in0.0 mm
12:40 AM 43.2°F6.2°C 37.8°F3.2°C 81% 2.2 mph SE3.5 kmh SE 4.0 mph6.4 kmh 29.86 in1011.2 mb - 0.00 in0.0 mm 0.00 in0.0 mm
12:30 AM 43.4°F6.3°C 37.9°F3.3°C 81% 1.1 mph SE1.8 kmh SE 3.0 mph4.8 kmh 29.86 in1011.2 mb - 0.00 in0.0 mm 0.00 in0.0 mm
12:20 AM 43.5°F6.4°C 38.0°F3.3°C 81% 3.1 mph ESE5.0 kmh ESE 5.0 mph8.0 kmh 29.86 in1011.2 mb - 0.00 in0.0 mm 0.00 in0.0 mm
12:10 AM 43.6°F6.4°C 37.8°F3.2°C 80% 3.0 mph E4.8 kmh E 4.0 mph6.4 kmh 29.86 in1011.2 mb - 0.00 in0.0 mm 0.00 in0.0 mm
12:00 AM 43.9°F6.6°C 37.8°F3.2°C 79% 2.2 mph E3.5 kmh E 5.0 mph8.0 kmh 29.86 in1011.2 mb - 0.00 in0.0 mm 0.00 in0.0 mm